createdAt,value
2022-09-12T00:01:52.285Z,14.40
2022-09-12T00:04:19.304Z,14.39
2022-09-12T00:06:49.837Z,14.39
2022-09-12T00:09:16.516Z,14.41
2022-09-12T00:11:45.845Z,14.50
2022-09-12T00:14:14.912Z,14.53
2022-09-12T00:16:44.971Z,14.51
2022-09-12T00:19:12.464Z,14.55
2022-09-12T00:21:40.244Z,14.57
2022-09-12T00:24:07.858Z,14.63
2022-09-12T00:26:35.338Z,14.49
2022-09-12T00:29:02.270Z,14.42
2022-09-12T00:31:29.074Z,14.36
2022-09-12T00:34:00.176Z,14.38
2022-09-12T00:36:30.997Z,14.37
2022-09-12T00:38:58.646Z,14.23
2022-09-12T00:41:28.864Z,14.18
2022-09-12T00:43:59.054Z,14.15
2022-09-12T00:46:28.896Z,14.27
2022-09-12T00:48:56.895Z,14.32
2022-09-12T00:51:31.242Z,14.33
2022-09-12T00:54:02.892Z,14.37
2022-09-12T00:56:29.615Z,14.37
2022-09-12T00:59:00.872Z,14.40
2022-09-12T01:01:32.196Z,14.42
2022-09-12T01:04:01.284Z,14.38
2022-09-12T01:06:36.936Z,14.31
2022-09-12T01:09:04.765Z,14.24
2022-09-12T01:11:37.905Z,14.23
2022-09-12T01:14:06.974Z,14.22
2022-09-12T01:16:37.691Z,14.33
2022-09-12T01:19:48.842Z,14.36
2022-09-12T01:22:23.883Z,14.37
2022-09-12T01:24:52.875Z,14.35
2022-09-12T01:27:41.074Z,14.28
2022-09-12T01:30:13.848Z,14.28
2022-09-12T01:32:51.887Z,14.27
2022-09-12T01:35:29.860Z,14.22
2022-09-12T01:38:04.879Z,14.21
2022-09-12T01:40:36.705Z,14.18
2022-09-12T01:43:17.778Z,14.17
2022-09-12T01:45:54.977Z,14.18
2022-09-12T01:48:25.909Z,14.19
2022-09-12T01:51:06.854Z,14.20
2022-09-12T01:53:39.119Z,14.23
2022-09-12T01:56:20.915Z,14.26
2022-09-12T01:58:57.046Z,14.27
2022-09-12T02:01:33.246Z,14.28
2022-09-12T02:04:12.151Z,14.27
2022-09-12T02:06:43.890Z,14.25
2022-09-12T02:09:14.851Z,14.22
2022-09-12T02:11:44.444Z,14.21
2022-09-12T02:14:19.892Z,14.22
2022-09-12T02:17:01.877Z,14.18
2022-09-12T02:19:35.326Z,14.15
2022-09-12T02:22:15.058Z,14.19
2022-09-12T02:24:45.548Z,14.18
2022-09-12T02:27:17.897Z,14.14
2022-09-12T02:29:45.280Z,14.05
2022-09-12T02:32:19.266Z,13.92
2022-09-12T02:34:50.013Z,13.83
2022-09-12T02:37:35.879Z,13.76
2022-09-12T02:40:03.247Z,13.71
2022-09-12T02:42:37.764Z,13.65
2022-09-12T02:45:05.152Z,13.61
2022-09-12T02:47:33.911Z,13.61
2022-09-12T02:50:01.042Z,13.60
2022-09-12T02:52:28.894Z,13.58
2022-09-12T02:54:59.937Z,13.58
2022-09-12T02:57:26.551Z,13.57
2022-09-12T02:59:56.608Z,13.56
2022-09-12T03:02:36.422Z,13.53
2022-09-12T03:05:21.951Z,13.44
2022-09-12T03:08:13.475Z,13.35
2022-09-12T03:11:01.938Z,13.23
2022-09-12T03:13:43.869Z,13.09
2022-09-12T03:16:24.272Z,13.02
2022-09-12T03:18:55.912Z,12.91
2022-09-12T03:21:25.943Z,12.85
2022-09-12T03:24:00.862Z,12.80
2022-09-12T03:26:37.578Z,12.74
2022-09-12T03:29:07.016Z,12.67
2022-09-12T03:31:33.779Z,12.65
2022-09-12T03:34:00.508Z,12.64
2022-09-12T03:36:28.975Z,12.61
2022-09-12T03:38:55.947Z,12.62
2022-09-12T03:41:22.728Z,12.60
2022-09-12T03:43:49.557Z,12.53
2022-09-12T03:46:16.269Z,12.49
2022-09-12T03:48:43.006Z,12.44
2022-09-12T03:51:10.327Z,12.39
2022-09-12T03:53:37.452Z,12.28
2022-09-12T03:56:08.743Z,12.15
2022-09-12T03:58:36.531Z,12.03
2022-09-12T04:01:11.746Z,11.97
2022-09-12T04:03:41.255Z,11.94
2022-09-12T04:06:10.517Z,11.92
2022-09-12T04:08:37.958Z,11.89
2022-09-12T04:11:06.594Z,11.90
2022-09-12T04:13:34.605Z,11.92
2022-09-12T04:16:01.665Z,11.91
2022-09-12T04:18:28.567Z,11.91
2022-09-12T04:20:55.370Z,11.94
2022-09-12T04:23:22.385Z,11.93
2022-09-12T04:25:56.461Z,11.97
2022-09-12T04:28:24.092Z,11.99
2022-09-12T04:30:51.430Z,11.98
2022-09-12T04:33:18.283Z,12.03
2022-09-12T04:35:44.971Z,12.05
2022-09-12T04:38:12.110Z,12.05
2022-09-12T04:40:39.115Z,12.04
2022-09-12T04:43:06.241Z,12.06
2022-09-12T04:45:33.318Z,12.07
2022-09-12T04:48:00.296Z,12.11
2022-09-12T04:50:27.118Z,12.21
2022-09-12T04:52:54.700Z,12.19
2022-09-12T04:55:22.113Z,12.21
2022-09-12T04:57:49.145Z,12.28
2022-09-12T05:00:16.328Z,12.19
2022-09-12T05:02:43.476Z,12.11
2022-09-12T05:05:10.938Z,12.16
2022-09-12T05:07:42.211Z,12.06
2022-09-12T05:10:09.593Z,12.16
2022-09-12T05:12:36.450Z,12.37
2022-09-12T05:15:04.118Z,12.45
2022-09-12T05:17:30.941Z,12.50
2022-09-12T05:20:02.152Z,12.61
2022-09-12T05:22:29.129Z,12.65
2022-09-12T05:24:55.866Z,12.75
2022-09-12T05:27:22.758Z,12.71
2022-09-12T05:29:49.677Z,12.85
2022-09-12T05:32:16.476Z,12.89
2022-09-12T05:34:43.259Z,13.01
2022-09-12T05:37:09.934Z,13.14
2022-09-12T05:42:05.506Z,13.15
2022-09-12T05:44:32.680Z,13.07
2022-09-12T05:46:59.495Z,13.02
2022-09-12T05:49:26.427Z,13.14
2022-09-12T05:51:53.509Z,13.21
2022-09-12T05:54:23.239Z,13.18
2022-09-12T05:56:50.165Z,13.25
2022-09-12T05:59:19.571Z,13.33
2022-09-12T06:02:10.510Z,13.25
2022-09-12T06:04:40.312Z,13.32
2022-09-12T06:07:07.032Z,13.41
2022-09-12T06:13:16.001Z,13.62
2022-09-12T06:16:07.656Z,13.66
2022-09-12T06:19:36.227Z,13.68
2022-09-12T06:26:12.578Z,13.61
2022-09-12T06:32:49.686Z,13.58
2022-09-12T06:35:16.650Z,13.61
2022-09-12T06:38:06.095Z,13.67
2022-09-12T06:40:33.256Z,13.76
2022-09-12T06:43:00.303Z,13.84
2022-09-12T06:54:39.002Z,14.15
2022-09-12T06:57:05.718Z,14.28
2022-09-12T06:59:55.352Z,14.28
2022-09-12T07:03:10.521Z,14.28
2022-09-12T07:18:37.152Z,14.97
2022-09-12T07:25:37.100Z,15.07
2022-09-12T07:32:06.555Z,15.24
2022-09-12T07:34:45.147Z,15.17
2022-09-12T08:01:42.217Z,15.51
2022-09-12T08:11:56.639Z,15.72
2022-09-12T08:41:34.306Z,15.44
2022-09-12T08:45:34.238Z,15.69
2022-09-12T08:48:46.173Z,15.77
2022-09-12T08:59:00.787Z,15.65
2022-09-12T09:25:28.860Z,16.04
2022-09-12T09:28:05.466Z,16.23
2022-09-12T09:39:03.550Z,16.22
2022-09-12T09:42:32.352Z,16.45
2022-09-12T09:48:49.607Z,16.42
2022-09-12T09:51:24.191Z,16.44
2022-09-12T09:54:02.842Z,16.53
2022-09-12T09:57:38.508Z,16.65
2022-09-12T10:00:32.161Z,16.83
2022-09-12T10:03:24.747Z,16.79
2022-09-12T10:07:03.389Z,16.74
2022-09-12T10:09:34.837Z,16.83
2022-09-12T10:12:19.706Z,16.81
2022-09-12T10:15:14.517Z,16.89
2022-09-12T10:17:46.761Z,17.02
2022-09-12T10:30:24.034Z,17.02
2022-09-12T10:37:06.869Z,17.15
2022-09-12T10:39:35.617Z,17.28
2022-09-12T10:42:03.724Z,17.36
2022-09-12T10:48:22.122Z,17.17
2022-09-12T10:50:49.033Z,17.16
2022-09-12T11:47:29.922Z,17.78
2022-09-12T11:54:27.277Z,17.54
2022-09-12T11:57:28.318Z,17.51
2022-09-12T12:04:54.587Z,17.77
2022-09-12T12:08:11.000Z,17.88
2022-09-12T12:14:47.339Z,17.90
2022-09-12T12:39:32.109Z,18.14
2022-09-12T12:42:37.802Z,18.08
2022-09-12T12:45:28.930Z,17.95
2022-09-12T13:07:07.962Z,18.34
2022-09-12T13:10:28.164Z,18.45
2022-09-12T13:17:37.103Z,18.40
2022-09-12T13:38:05.826Z,17.77
2022-09-12T13:41:29.632Z,17.76
2022-09-12T13:52:27.694Z,17.73
2022-09-12T14:02:30.667Z,18.08
2022-09-12T14:05:44.545Z,18.06
2022-09-12T14:08:17.562Z,18.02
2022-09-12T14:11:29.105Z,18.02
2022-09-12T14:25:18.791Z,17.85
2022-09-12T14:27:55.655Z,17.82
2022-09-12T14:30:42.008Z,17.79
2022-09-12T14:37:48.516Z,17.82
2022-09-12T14:40:23.122Z,17.94
2022-09-12T14:43:48.631Z,17.99
2022-09-12T14:46:33.911Z,17.97
2022-09-12T14:53:47.006Z,17.90
2022-09-12T15:08:14.644Z,17.35
2022-09-12T15:10:41.617Z,17.23
2022-09-12T15:13:14.627Z,17.17
2022-09-12T15:19:35.149Z,17.19
2022-09-12T15:23:10.377Z,17.22
2022-09-12T15:25:40.941Z,17.14
2022-09-12T15:29:06.871Z,17.14
2022-09-12T15:31:56.055Z,17.04
2022-09-12T15:34:47.073Z,16.97
2022-09-12T15:37:28.332Z,17.00
2022-09-12T16:03:48.223Z,16.26
2022-09-12T16:06:41.064Z,16.21
2022-09-12T16:09:16.583Z,16.14
2022-09-12T16:12:23.969Z,16.12
2022-09-12T16:19:34.948Z,15.75
2022-09-12T16:22:42.411Z,15.58
2022-09-12T16:40:45.625Z,15.19
2022-09-12T17:06:39.078Z,14.53
2022-09-12T17:13:10.840Z,14.29
2022-09-12T17:51:14.392Z,13.60
2022-09-12T17:54:39.849Z,13.57
2022-09-12T17:57:12.067Z,13.53
2022-09-12T18:12:01.902Z,13.63
2022-09-12T19:20:10.206Z,12.76
2022-09-12T21:07:40.826Z,12.76
2022-09-12T21:45:58.117Z,12.70
2022-09-12T22:23:52.392Z,12.26
2022-09-12T22:45:53.072Z,12.24
2022-09-12T22:49:21.879Z,12.11
2022-09-12T22:56:17.346Z,12.19
2022-09-12T22:59:11.246Z,12.24
2022-09-12T23:02:35.782Z,12.10
2022-09-12T23:09:08.683Z,12.23
2022-09-12T23:15:59.740Z,12.27
2022-09-12T23:30:00.087Z,12.01
2022-09-12T23:37:04.909Z,11.95
2022-09-12T23:39:31.822Z,11.86
